KEIK

Erie Municipal Airport

Erie, Colorado, USA
METAR KEIK 141654Z AUTO 00000KT 10SM CLR 05/M15 A3036 RMK AO2 T00451149
Observed Flight Rules
Dec-14 @ 16:54 UTC (8 minutes ago) Visual Flight Rules
Visibility Clouds
10 miles
  • Clear skies
Temperatures Readings
Current 5°C / 41°F
Dewpoint -15°C / 5°F
Humidity 22%
Altimeter 30.36" Hg
Pressure 1028 hPa
Elevation 1564
METAR KEIK 141654Z AUTO 00000KT 10SM CLR 05/M15 A3036 RMK AO2 T00451149
Observed Flight Rules
Dec-14 @ 16:54 UTC
(8 minutes ago)
VFR
Clouds
  • Clear skies
Temperature Dewpoint
5°C / 41°F -15°C / 5°F
Humidity Altimeter Pressure
22% 30.36" Hg 1028 hPa